sensor_id;sensor_type;location;lat;lon;timestamp;pressure;altitude;pressure_sealevel;temperature;humidity
7918;BME280;4004;42.624;23.386;2022-12-08T00:01:27;93948.47;;;4.32;100.00
7918;BME280;4004;42.624;23.386;2022-12-08T00:03:56;93956.94;;;4.26;100.00
7918;BME280;4004;42.624;23.386;2022-12-08T00:06:26;93951.19;;;4.15;100.00
7918;BME280;4004;42.624;23.386;2022-12-08T00:09:16;93954.34;;;4.08;100.00
7918;BME280;4004;42.624;23.386;2022-12-08T00:11:52;93975.78;;;4.03;100.00
7918;BME280;4004;42.624;23.386;2022-12-08T00:14:19;93980.22;;;3.82;100.00
7918;BME280;4004;42.624;23.386;2022-12-08T00:16:49;93989.78;;;3.74;100.00
7918;BME280;4004;42.624;23.386;2022-12-08T00:19:15;93986.47;;;3.68;100.00
7918;BME280;4004;42.624;23.386;2022-12-08T00:21:42;93988.19;;;3.82;100.00
7918;BME280;4004;42.624;23.386;2022-12-08T00:24:09;94001.47;;;3.99;100.00
7918;BME280;4004;42.624;23.386;2022-12-08T00:26:36;93996.78;;;4.05;100.00
7918;BME280;4004;42.624;23.386;2022-12-08T00:29:03;94004.88;;;4.08;100.00
7918;BME280;4004;42.624;23.386;2022-12-08T00:31:29;94008.47;;;4.12;100.00
7918;BME280;4004;42.624;23.386;2022-12-08T00:33:58;94012.69;;;4.13;100.00
7918;BME280;4004;42.624;23.386;2022-12-08T00:36:25;94015.19;;;4.19;100.00
7918;BME280;4004;42.624;23.386;2022-12-08T00:38:52;94005.97;;;4.25;100.00
7918;BME280;4004;42.624;23.386;2022-12-08T00:41:21;94008.16;;;4.23;100.00
7918;BME280;4004;42.624;23.386;2022-12-08T00:44:09;94004.09;;;4.17;100.00
7918;BME280;4004;42.624;23.386;2022-12-08T00:46:36;94001.25;;;4.22;100.00
7918;BME280;4004;42.624;23.386;2022-12-08T00:49:05;94005.50;;;4.23;100.00
7918;BME280;4004;42.624;23.386;2022-12-08T00:51:32;94011.91;;;4.22;100.00
7918;BME280;4004;42.624;23.386;2022-12-08T00:53:59;94010.34;;;4.21;100.00
7918;BME280;4004;42.624;23.386;2022-12-08T00:56:26;94019.09;;;4.21;100.00
7918;BME280;4004;42.624;23.386;2022-12-08T00:58:53;94021.47;;;4.23;100.00
7918;BME280;4004;42.624;23.386;2022-12-08T01:01:20;94019.88;;;4.22;100.00
7918;BME280;4004;42.624;23.386;2022-12-08T01:03:47;94016.28;;;4.18;100.00
7918;BME280;4004;42.624;23.386;2022-12-08T01:06:15;94013.31;;;4.19;100.00
7918;BME280;4004;42.624;23.386;2022-12-08T01:08:42;94002.22;;;4.08;100.00
7918;BME280;4004;42.624;23.386;2022-12-08T01:11:11;93996.91;;;4.00;100.00
7918;BME280;4004;42.624;23.386;2022-12-08T01:13:38;93992.06;;;4.02;100.00
7918;BME280;4004;42.624;23.386;2022-12-08T01:16:05;93991.28;;;4.01;100.00
7918;BME280;4004;42.624;23.386;2022-12-08T01:18:33;94006.13;;;4.02;100.00
7918;BME280;4004;42.624;23.386;2022-12-08T01:21:01;94006.19;;;3.93;100.00
7918;BME280;4004;42.624;23.386;2022-12-08T01:23:30;94007.41;;;4.05;100.00
7918;BME280;4004;42.624;23.386;2022-12-08T01:26:01;94014.59;;;3.95;100.00
7918;BME280;4004;42.624;23.386;2022-12-08T01:28:28;94009.75;;;3.89;100.00
7918;BME280;4004;42.624;23.386;2022-12-08T01:30:55;94015.41;;;3.87;100.00
7918;BME280;4004;42.624;23.386;2022-12-08T01:33:22;94012.28;;;3.94;100.00
7918;BME280;4004;42.624;23.386;2022-12-08T01:35:49;94014.00;;;3.99;100.00
7918;BME280;4004;42.624;23.386;2022-12-08T01:38:16;94000.50;;;4.04;100.00
7918;BME280;4004;42.624;23.386;2022-12-08T01:40:44;93994.53;;;4.07;100.00
7918;BME280;4004;42.624;23.386;2022-12-08T01:43:13;93997.38;;;4.10;100.00
7918;BME280;4004;42.624;23.386;2022-12-08T01:45:41;93997.22;;;4.07;100.00
7918;BME280;4004;42.624;23.386;2022-12-08T01:48:10;93990.50;;;4.09;100.00
7918;BME280;4004;42.624;23.386;2022-12-08T01:50:40;93986.09;;;4.13;100.00
7918;BME280;4004;42.624;23.386;2022-12-08T01:53:10;93980.59;;;4.19;100.00
7918;BME280;4004;42.624;23.386;2022-12-08T01:55:41;93978.22;;;4.26;100.00
7918;BME280;4004;42.624;23.386;2022-12-08T01:58:15;93976.06;;;4.19;100.00
7918;BME280;4004;42.624;23.386;2022-12-08T02:00:43;93920.16;;;3.89;100.00
7918;BME280;4004;42.624;23.386;2022-12-08T02:03:13;93969.31;;;4.22;100.00
7918;BME280;4004;42.624;23.386;2022-12-08T02:05:41;93961.38;;;4.13;100.00
7918;BME280;4004;42.624;23.386;2022-12-08T02:08:10;93956.69;;;4.10;100.00
7918;BME280;4004;42.624;23.386;2022-12-08T02:10:39;93963.00;;;3.88;100.00
7918;BME280;4004;42.624;23.386;2022-12-08T02:13:08;93950.50;;;3.71;100.00
7918;BME280;4004;42.624;23.386;2022-12-08T02:15:46;93954.91;;;3.67;100.00
7918;BME280;4004;42.624;23.386;2022-12-08T02:18:29;93964.13;;;3.69;100.00
7918;BME280;4004;42.624;23.386;2022-12-08T02:21:03;93957.88;;;3.57;100.00
7918;BME280;4004;42.624;23.386;2022-12-08T02:23:39;93953.53;;;3.35;100.00
7918;BME280;4004;42.624;23.386;2022-12-08T02:29:44;93966.50;;;3.36;100.00
7918;BME280;4004;42.624;23.386;2022-12-08T02:35:15;93977.44;;;3.43;100.00
7918;BME280;4004;42.624;23.386;2022-12-08T02:37:49;93970.72;;;3.46;100.00
7918;BME280;4004;42.624;23.386;2022-12-08T02:40:23;93974.47;;;3.36;100.00
7918;BME280;4004;42.624;23.386;2022-12-08T02:42:55;93971.00;;;3.36;100.00
7918;BME280;4004;42.624;23.386;2022-12-08T02:45:26;93979.16;;;3.39;100.00
7918;BME280;4004;42.624;23.386;2022-12-08T02:47:57;93969.28;;;3.40;100.00
7918;BME280;4004;42.624;23.386;2022-12-08T02:50:26;93948.81;;;3.49;100.00
7918;BME280;4004;42.624;23.386;2022-12-08T02:52:53;93958.84;;;3.52;100.00
7918;BME280;4004;42.624;23.386;2022-12-08T02:55:24;93962.56;;;3.42;100.00
7918;BME280;4004;42.624;23.386;2022-12-08T02:58:24;93959.59;;;3.26;100.00
7918;BME280;4004;42.624;23.386;2022-12-08T03:01:08;93967.56;;;3.09;100.00
7918;BME280;4004;42.624;23.386;2022-12-08T03:03:45;93970.22;;;3.09;100.00
7918;BME280;4004;42.624;23.386;2022-12-08T03:06:23;93976.34;;;3.09;100.00
7918;BME280;4004;42.624;23.386;2022-12-08T03:08:56;93968.03;;;3.11;100.00
7918;BME280;4004;42.624;23.386;2022-12-08T03:11:27;93965.53;;;3.15;100.00
7918;BME280;4004;42.624;23.386;2022-12-08T03:13:59;93969.91;;;3.19;100.00
7918;BME280;4004;42.624;23.386;2022-12-08T03:16:29;93972.88;;;3.26;100.00
7918;BME280;4004;42.624;23.386;2022-12-08T03:18:59;93977.59;;;3.29;100.00
7918;BME280;4004;42.624;23.386;2022-12-08T03:21:30;93965.69;;;3.36;100.00
7918;BME280;4004;42.624;23.386;2022-12-08T03:24:01;93963.84;;;3.45;100.00
7918;BME280;4004;42.624;23.386;2022-12-08T03:26:33;93961.50;;;3.43;100.00
7918;BME280;4004;42.624;23.386;2022-12-08T03:29:00;93966.81;;;3.43;100.00
7918;BME280;4004;42.624;23.386;2022-12-08T03:31:30;93961.03;;;3.50;100.00
7918;BME280;4004;42.624;23.386;2022-12-08T03:33:59;93969.75;;;3.59;100.00
7918;BME280;4004;42.624;23.386;2022-12-08T03:36:28;93967.75;;;3.47;100.00
7918;BME280;4004;42.624;23.386;2022-12-08T03:38:55;93964.28;;;3.56;100.00
7918;BME280;4004;42.624;23.386;2022-12-08T03:41:22;93948.81;;;3.49;100.00
7918;BME280;4004;42.624;23.386;2022-12-08T03:43:51;93953.34;;;3.48;100.00
7918;BME280;4004;42.624;23.386;2022-12-08T03:46:19;93960.38;;;3.44;100.00
7918;BME280;4004;42.624;23.386;2022-12-08T03:48:46;93957.59;;;3.41;100.00
7918;BME280;4004;42.624;23.386;2022-12-08T03:51:13;93949.31;;;3.34;100.00
7918;BME280;4004;42.624;23.386;2022-12-08T03:53:42;93943.06;;;3.29;100.00
7918;BME280;4004;42.624;23.386;2022-12-08T03:56:14;93965.56;;;3.32;100.00
7918;BME280;4004;42.624;23.386;2022-12-08T03:58:42;93966.34;;;3.32;100.00
7918;BME280;4004;42.624;23.386;2022-12-08T04:01:08;93960.41;;;3.18;100.00
7918;BME280;4004;42.624;23.386;2022-12-08T04:03:36;93966.00;;;3.08;100.00
7918;BME280;4004;42.624;23.386;2022-12-08T04:06:02;93966.94;;;3.03;100.00
7918;BME280;4004;42.624;23.386;2022-12-08T04:08:29;93971.50;;;3.11;100.00
7918;BME280;4004;42.624;23.386;2022-12-08T04:10:58;93974.28;;;3.15;100.00
7918;BME280;4004;42.624;23.386;2022-12-08T04:13:24;93979.47;;;3.20;100.00
7918;BME280;4004;42.624;23.386;2022-12-08T04:15:51;93974.78;;;3.35;100.00
7918;BME280;4004;42.624;23.386;2022-12-08T04:18:18;93976.66;;;3.43;100.00
7918;BME280;4004;42.624;23.386;2022-12-08T04:20:45;93970.72;;;3.46;100.00
7918;BME280;4004;42.624;23.386;2022-12-08T04:23:12;93977.28;;;3.48;100.00
7918;BME280;4004;42.624;23.386;2022-12-08T04:25:39;93976.97;;;3.50;100.00
7918;BME280;4004;42.624;23.386;2022-12-08T04:28:07;93966.94;;;3.56;100.00
7918;BME280;4004;42.624;23.386;2022-12-08T04:30:34;93964.31;;;3.47;100.00
7918;BME280;4004;42.624;23.386;2022-12-08T04:33:01;93982.13;;;3.55;100.00
7918;BME280;4004;42.624;23.386;2022-12-08T04:35:28;93981.19;;;3.51;100.00
7918;BME280;4004;42.624;23.386;2022-12-08T04:37:55;93977.75;;;3.50;100.00
7918;BME280;4004;42.624;23.386;2022-12-08T04:40:21;93976.81;;;3.46;100.00
7918;BME280;4004;42.624;23.386;2022-12-08T04:42:48;93983.38;;;3.40;100.00
7918;BME280;4004;42.624;23.386;2022-12-08T04:45:17;93983.53;;;3.52;100.00
7918;BME280;4004;42.624;23.386;2022-12-08T04:47:44;93973.38;;;3.55;100.00
7918;BME280;4004;42.624;23.386;2022-12-08T04:50:11;93984.78;;;3.55;100.00
7918;BME280;4004;42.624;23.386;2022-12-08T04:52:38;93981.16;;;3.68;100.00
7918;BME280;4004;42.624;23.386;2022-12-08T04:55:05;93987.59;;;3.67;100.00
7918;BME280;4004;42.624;23.386;2022-12-08T04:57:32;93987.88;;;3.74;100.00
7918;BME280;4004;42.624;23.386;2022-12-08T04:59:59;93974.28;;;3.76;100.00
7918;BME280;4004;42.624;23.386;2022-12-08T05:02:27;93989.28;;;3.81;100.00
7918;BME280;4004;42.624;23.386;2022-12-08T05:04:54;93997.56;;;3.88;100.00
7918;BME280;4004;42.624;23.386;2022-12-08T05:07:21;93992.09;;;3.93;100.00
7918;BME280;4004;42.624;23.386;2022-12-08T05:09:47;93981.78;;;3.91;100.00
7918;BME280;4004;42.624;23.386;2022-12-08T05:12:14;93997.56;;;3.97;100.00
7918;BME280;4004;42.624;23.386;2022-12-08T05:14:41;94001.00;;;3.97;100.00
7918;BME280;4004;42.624;23.386;2022-12-08T05:17:08;93994.25;;;4.00;100.00
7918;BME280;4004;42.624;23.386;2022-12-08T05:19:36;93989.09;;;4.12;100.00
7918;BME280;4004;42.624;23.386;2022-12-08T05:22:02;94007.69;;;4.12;100.00
7918;BME280;4004;42.624;23.386;2022-12-08T05:24:29;93991.72;;;4.21;100.00
7918;BME280;4004;42.624;23.386;2022-12-08T05:26:56;93991.72;;;4.21;100.00
7918;BME280;4004;42.624;23.386;2022-12-08T05:29:23;93995.00;;;4.18;100.00
7918;BME280;4004;42.624;23.386;2022-12-08T05:31:50;94005.16;;;4.24;100.00
7918;BME280;4004;42.624;23.386;2022-12-08T05:34:16;94016.75;;;4.20;100.00
7918;BME280;4004;42.624;23.386;2022-12-08T05:36:44;93998.59;;;4.22;100.00
7918;BME280;4004;42.624;23.386;2022-12-08T05:39:13;94001.28;;;4.04;100.00
7918;BME280;4004;42.624;23.386;2022-12-08T05:41:40;94016.00;;;4.02;100.00
7918;BME280;4004;42.624;23.386;2022-12-08T05:44:07;94015.53;;;4.08;100.00
7918;BME280;4004;42.624;23.386;2022-12-08T05:46:33;94002.81;;;4.23;100.00
7918;BME280;4004;42.624;23.386;2022-12-08T05:49:01;94030.97;;;4.32;100.00
7918;BME280;4004;42.624;23.386;2022-12-08T05:51:28;94027.34;;;4.37;100.00
7918;BME280;4004;42.624;23.386;2022-12-08T05:53:56;94007.00;;;4.41;100.00
7918;BME280;4004;42.624;23.386;2022-12-08T05:56:23;94007.47;;;4.43;100.00
7918;BME280;4004;42.624;23.386;2022-12-08T05:58:50;94034.19;;;4.47;100.00
7918;BME280;4004;42.624;23.386;2022-12-08T06:01:19;94009.00;;;4.44;100.00
7918;BME280;4004;42.624;23.386;2022-12-08T06:03:45;93996.38;;;4.32;100.00
7918;BME280;4004;42.624;23.386;2022-12-08T06:06:12;94025.34;;;4.34;100.00
7918;BME280;4004;42.624;23.386;2022-12-08T06:08:39;94031.13;;;4.36;100.00
7918;BME280;4004;42.624;23.386;2022-12-08T06:11:08;94000.72;;;4.46;100.00
7918;BME280;4004;42.624;23.386;2022-12-08T06:13:35;94012.41;;;4.53;100.00
7918;BME280;4004;42.624;23.386;2022-12-08T06:16:05;94027.63;;;4.53;100.00
7918;BME280;4004;42.624;23.386;2022-12-08T06:18:32;94015.53;;;4.55;100.00
7918;BME280;4004;42.624;23.386;2022-12-08T06:21:02;94023.50;;;4.64;100.00
7918;BME280;4004;42.624;23.386;2022-12-08T06:23:29;94039.38;;;4.90;100.00
7918;BME280;4004;42.624;23.386;2022-12-08T06:25:59;94021.16;;;5.22;100.00
7918;BME280;4004;42.624;23.386;2022-12-08T06:28:28;94032.78;;;5.47;100.00
7918;BME280;4004;42.624;23.386;2022-12-08T06:30:55;94043.13;;;5.70;100.00
7918;BME280;4004;42.624;23.386;2022-12-08T06:33:22;94027.66;;;5.63;100.00
7918;BME280;4004;42.624;23.386;2022-12-08T06:35:48;94044.22;;;5.48;100.00
7918;BME280;4004;42.624;23.386;2022-12-08T06:38:15;94055.53;;;5.45;100.00
7918;BME280;4004;42.624;23.386;2022-12-08T06:40:42;94057.50;;;5.56;100.00
7918;BME280;4004;42.624;23.386;2022-12-08T06:43:08;94050.59;;;5.55;100.00
7918;BME280;4004;42.624;23.386;2022-12-08T06:45:39;94039.34;;;5.50;100.00
7918;BME280;4004;42.624;23.386;2022-12-08T06:48:06;94028.75;;;5.83;100.00
7918;BME280;4004;42.624;23.386;2022-12-08T06:50:33;94027.03;;;6.20;100.00
7918;BME280;4004;42.624;23.386;2022-12-08T06:53:00;94020.84;;;6.41;100.00
7918;BME280;4004;42.624;23.386;2022-12-08T06:55:27;93966.50;;;5.91;100.00
7918;BME280;4004;42.624;23.386;2022-12-08T06:57:54;94027.00;;;5.87;100.00
7918;BME280;4004;42.624;23.386;2022-12-08T07:00:21;94022.84;;;5.98;100.00
7918;BME280;4004;42.624;23.386;2022-12-08T07:02:49;94025.31;;;5.82;100.00
7918;BME280;4004;42.624;23.386;2022-12-08T07:05:16;94032.28;;;5.96;100.00
7918;BME280;4004;42.624;23.386;2022-12-08T07:07:43;94036.97;;;6.11;100.00
7918;BME280;4004;42.624;23.386;2022-12-08T07:10:09;94038.09;;;5.68;100.00
7918;BME280;4004;42.624;23.386;2022-12-08T07:12:36;94036.56;;;5.67;100.00
7918;BME280;4004;42.624;23.386;2022-12-08T07:15:04;94048.13;;;5.71;100.00
7918;BME280;4004;42.624;23.386;2022-12-08T07:17:31;94045.66;;;5.45;100.00
7918;BME280;4004;42.624;23.386;2022-12-08T07:19:59;94039.97;;;5.47;100.00
7918;BME280;4004;42.624;23.386;2022-12-08T07:22:25;94033.88;;;5.46;100.00
7918;BME280;4004;42.624;23.386;2022-12-08T07:24:52;94050.34;;;5.48;100.00
7918;BME280;4004;42.624;23.386;2022-12-08T07:27:19;94056.72;;;5.56;100.00
7918;BME280;4004;42.624;23.386;2022-12-08T07:29:46;94058.22;;;5.66;100.00
7918;BME280;4004;42.624;23.386;2022-12-08T07:32:12;94058.16;;;5.74;100.00
7918;BME280;4004;42.624;23.386;2022-12-08T07:34:39;94064.88;;;5.80;100.00
7918;BME280;4004;42.624;23.386;2022-12-08T07:37:07;94074.09;;;5.83;100.00
7918;BME280;4004;42.624;23.386;2022-12-08T07:39:34;94086.78;;;5.86;100.00
7918;BME280;4004;42.624;23.386;2022-12-08T07:42:01;94071.53;;;5.87;100.00
7918;BME280;4004;42.624;23.386;2022-12-08T07:44:27;94086.00;;;5.86;100.00
7918;BME280;4004;42.624;23.386;2022-12-08T07:46:54;94077.41;;;5.80;100.00
7918;BME280;4004;42.624;23.386;2022-12-08T07:49:21;94048.19;;;5.42;100.00
7918;BME280;4004;42.624;23.386;2022-12-08T07:51:48;94078.69;;;5.53;100.00
7918;BME280;4004;42.624;23.386;2022-12-08T07:54:16;94081.81;;;5.55;100.00
7918;BME280;4004;42.624;23.386;2022-12-08T07:56:42;94080.78;;;5.47;100.00
7918;BME280;4004;42.624;23.386;2022-12-08T07:59:09;94082.00;;;5.50;100.00
7918;BME280;4004;42.624;23.386;2022-12-08T08:01:36;94080.38;;;5.57;100.00
7918;BME280;4004;42.624;23.386;2022-12-08T08:04:04;94078.56;;;5.70;100.00
7918;BME280;4004;42.624;23.386;2022-12-08T08:06:32;94076.25;;;5.90;100.00
7918;BME280;4004;42.624;23.386;2022-12-08T08:08:59;94080.41;;;5.99;100.00
7918;BME280;4004;42.624;23.386;2022-12-08T08:11:27;94081.81;;;6.18;100.00
7918;BME280;4004;42.624;23.386;2022-12-08T08:13:55;94023.47;;;5.95;100.00
7918;BME280;4004;42.624;23.386;2022-12-08T08:16:21;94083.13;;;6.33;100.00
7918;BME280;4004;42.624;23.386;2022-12-08T08:18:49;94084.72;;;6.46;100.00
7918;BME280;4004;42.624;23.386;2022-12-08T08:21:16;94082.19;;;6.50;100.00
7918;BME280;4004;42.624;23.386;2022-12-08T08:23:43;94075.03;;;6.41;100.00
7918;BME280;4004;42.624;23.386;2022-12-08T08:26:10;94085.38;;;6.43;100.00
7918;BME280;4004;42.624;23.386;2022-12-08T08:28:38;94068.75;;;6.58;100.00
7918;BME280;4004;42.624;23.386;2022-12-08T08:31:06;94068.75;;;6.71;100.00
7918;BME280;4004;42.624;23.386;2022-12-08T08:33:32;94072.41;;;6.66;100.00
7918;BME280;4004;42.624;23.386;2022-12-08T08:35:59;94080.97;;;6.59;100.00
7918;BME280;4004;42.624;23.386;2022-12-08T08:38:26;94078.84;;;6.53;100.00
7918;BME280;4004;42.624;23.386;2022-12-08T08:40:53;94078.97;;;6.69;100.00
7918;BME280;4004;42.624;23.386;2022-12-08T08:43:20;94070.56;;;6.79;100.00
7918;BME280;4004;42.624;23.386;2022-12-08T08:45:58;94068.34;;;7.05;100.00
7918;BME280;4004;42.624;23.386;2022-12-08T08:48:26;94070.00;;;7.22;100.00
7918;BME280;4004;42.624;23.386;2022-12-08T08:50:54;94066.78;;;7.41;100.00
7918;BME280;4004;42.624;23.386;2022-12-08T08:53:21;94018.09;;;7.23;100.00
7918;BME280;4004;42.624;23.386;2022-12-08T08:55:48;94077.66;;;7.73;100.00
7918;BME280;4004;42.624;23.386;2022-12-08T08:58:15;94069.50;;;7.82;100.00
7918;BME280;4004;42.624;23.386;2022-12-08T09:00:42;94057.78;;;7.86;100.00
7918;BME280;4004;42.624;23.386;2022-12-08T09:03:10;94069.84;;;7.80;100.00
7918;BME280;4004;42.624;23.386;2022-12-08T09:05:37;94066.94;;;7.85;100.00
7918;BME280;4004;42.624;23.386;2022-12-08T09:08:05;94058.66;;;7.91;100.00
7918;BME280;4004;42.624;23.386;2022-12-08T09:10:32;94061.75;;;8.05;100.00
7918;BME280;4004;42.624;23.386;2022-12-08T09:12:59;94056.22;;;8.14;100.00
7918;BME280;4004;42.624;23.386;2022-12-08T09:15:25;94059.09;;;7.93;100.00
7918;BME280;4004;42.624;23.386;2022-12-08T09:17:52;94043.88;;;8.09;100.00
7918;BME280;4004;42.624;23.386;2022-12-08T09:20:20;94033.13;;;8.21;100.00
7918;BME280;4004;42.624;23.386;2022-12-08T09:22:47;94041.78;;;8.30;100.00
7918;BME280;4004;42.624;23.386;2022-12-08T09:25:14;94041.06;;;8.46;100.00
7918;BME280;4004;42.624;23.386;2022-12-08T09:27:40;94037.47;;;8.54;100.00
7918;BME280;4004;42.624;23.386;2022-12-08T09:30:08;94041.25;;;8.69;100.00
7918;BME280;4004;42.624;23.386;2022-12-08T09:32:35;94032.44;;;8.68;100.00
7918;BME280;4004;42.624;23.386;2022-12-08T09:35:01;94036.31;;;8.55;100.00
7918;BME280;4004;42.624;23.386;2022-12-08T09:37:30;94022.50;;;8.53;100.00
7918;BME280;4004;42.624;23.386;2022-12-08T09:39:56;94015.47;;;8.48;100.00
7918;BME280;4004;42.624;23.386;2022-12-08T09:42:36;94017.28;;;8.44;100.00
7918;BME280;4004;42.624;23.386;2022-12-08T09:45:10;94021.44;;;8.58;100.00
7918;BME280;4004;42.624;23.386;2022-12-08T09:47:40;94026.19;;;8.48;100.00
7918;BME280;4004;42.624;23.386;2022-12-08T09:50:12;94018.00;;;8.57;100.00
7918;BME280;4004;42.624;23.386;2022-12-08T09:52:43;94030.91;;;8.67;100.00
7918;BME280;4004;42.624;23.386;2022-12-08T09:55:18;94019.31;;;8.63;100.00
7918;BME280;4004;42.624;23.386;2022-12-08T09:57:51;94033.50;;;8.80;100.00
7918;BME280;4004;42.624;23.386;2022-12-08T10:00:20;94022.09;;;8.83;100.00
7918;BME280;4004;42.624;23.386;2022-12-08T10:02:47;94023.91;;;8.95;100.00
7918;BME280;4004;42.624;23.386;2022-12-08T10:05:14;94008.91;;;8.93;100.00
7918;BME280;4004;42.624;23.386;2022-12-08T10:07:45;94000.38;;;8.88;100.00
7918;BME280;4004;42.624;23.386;2022-12-08T10:10:24;93994.25;;;8.87;100.00
7918;BME280;4004;42.624;23.386;2022-12-08T10:12:54;93998.44;;;9.04;100.00
7918;BME280;4004;42.624;23.386;2022-12-08T10:15:39;94004.06;;;9.15;100.00
7918;BME280;4004;42.624;23.386;2022-12-08T10:18:14;93993.69;;;8.98;100.00
7918;BME280;4004;42.624;23.386;2022-12-08T10:20:43;93999.25;;;9.05;100.00
7918;BME280;4004;42.624;23.386;2022-12-08T10:23:21;93995.16;;;9.11;100.00
7918;BME280;4004;42.624;23.386;2022-12-08T10:25:54;93946.00;;;8.87;100.00
7918;BME280;4004;42.624;23.386;2022-12-08T10:28:23;93989.34;;;9.09;100.00
7918;BME280;4004;42.624;23.386;2022-12-08T10:30:50;93989.44;;;9.12;100.00
7918;BME280;4004;42.624;23.386;2022-12-08T10:33:19;93990.22;;;9.13;100.00
7918;BME280;4004;42.624;23.386;2022-12-08T10:35:47;93987.78;;;9.24;100.00
7918;BME280;4004;42.624;23.386;2022-12-08T10:38:18;93978.50;;;9.37;100.00
7918;BME280;4004;42.624;23.386;2022-12-08T10:40:46;93980.63;;;9.47;100.00
7918;BME280;4004;42.624;23.386;2022-12-08T10:43:18;93979.50;;;9.48;100.00
7918;BME280;4004;42.624;23.386;2022-12-08T10:45:46;93982.22;;;9.68;99.49
7918;BME280;4004;42.624;23.386;2022-12-08T10:48:16;93972.22;;;9.49;99.28
7918;BME280;4004;42.624;23.386;2022-12-08T10:50:45;93967.84;;;9.41;99.80
7918;BME280;4004;42.624;23.386;2022-12-08T10:53:14;93966.22;;;9.36;98.73
7918;BME280;4004;42.624;23.386;2022-12-08T10:55:48;93957.75;;;9.34;98.76
7918;BME280;4004;42.624;23.386;2022-12-08T10:58:26;93962.59;;;9.28;98.95
7918;BME280;4004;42.624;23.386;2022-12-08T11:00:55;93959.19;;;9.31;99.39
7918;BME280;4004;42.624;23.386;2022-12-08T11:03:26;93956.88;;;9.30;99.25
7918;BME280;4004;42.624;23.386;2022-12-08T11:05:58;93954.41;;;9.21;99.26
7918;BME280;4004;42.624;23.386;2022-12-08T11:08:26;93947.31;;;9.13;100.00
7918;BME280;4004;42.624;23.386;2022-12-08T11:10:55;93954.41;;;9.21;100.00
7918;BME280;4004;42.624;23.386;2022-12-08T11:13:23;93953.03;;;9.11;99.82
7918;BME280;4004;42.624;23.386;2022-12-08T11:15:52;93939.13;;;9.06;99.84
7918;BME280;4004;42.624;23.386;2022-12-08T11:18:22;93952.00;;;9.00;100.00
7918;BME280;4004;42.624;23.386;2022-12-08T11:20:56;93945.53;;;9.01;100.00
7918;BME280;4004;42.624;23.386;2022-12-08T11:23:25;93937.06;;;8.99;100.00
7918;BME280;4004;42.624;23.386;2022-12-08T11:25:56;93933.22;;;9.00;100.00
7918;BME280;4004;42.624;23.386;2022-12-08T11:28:24;93930.31;;;9.05;100.00
7918;BME280;4004;42.624;23.386;2022-12-08T11:30:55;93929.88;;;9.03;100.00
7918;BME280;4004;42.624;23.386;2022-12-08T11:33:24;93926.22;;;9.11;100.00
7918;BME280;4004;42.624;23.386;2022-12-08T11:35:56;93911.00;;;9.35;100.00
7918;BME280;4004;42.624;23.386;2022-12-08T11:38:26;93903.22;;;9.30;100.00
7918;BME280;4004;42.624;23.386;2022-12-08T11:40:57;93913.19;;;9.29;100.00
7918;BME280;4004;42.624;23.386;2022-12-08T11:43:30;93915.31;;;9.40;100.00
7918;BME280;4004;42.624;23.386;2022-12-08T11:46:10;93917.31;;;9.43;100.00
7918;BME280;4004;42.624;23.386;2022-12-08T11:48:44;93914.19;;;9.41;100.00
7918;BME280;4004;42.624;23.386;2022-12-08T11:51:14;93913.69;;;9.54;100.00
7918;BME280;4004;42.624;23.386;2022-12-08T11:53:47;93903.72;;;9.74;100.00
7918;BME280;4004;42.624;23.386;2022-12-08T11:56:21;93893.31;;;9.92;99.57
7918;BME280;4004;42.624;23.386;2022-12-08T11:58:52;93900.72;;;9.99;97.86
7918;BME280;4004;42.624;23.386;2022-12-08T12:01:22;93895.78;;;10.01;96.80
7918;BME280;4004;42.624;23.386;2022-12-08T12:03:54;93896.13;;;10.00;96.99
7918;BME280;4004;42.624;23.386;2022-12-08T12:06:40;93893.44;;;10.00;96.63
7918;BME280;4004;42.624;23.386;2022-12-08T12:09:17;93891.25;;;10.05;96.75
7918;BME280;4004;42.624;23.386;2022-12-08T12:11:57;93890.06;;;10.03;97.52
7918;BME280;4004;42.624;23.386;2022-12-08T12:17:44;93882.81;;;10.07;97.71
7918;BME280;4004;42.624;23.386;2022-12-08T12:20:17;93890.09;;;10.06;97.84
7918;BME280;4004;42.624;23.386;2022-12-08T12:22:48;93890.09;;;10.06;97.35
7918;BME280;4004;42.624;23.386;2022-12-08T12:25:20;93879.91;;;10.15;97.28
7918;BME280;4004;42.624;23.386;2022-12-08T12:27:50;93892.41;;;10.27;97.28
7918;BME280;4004;42.624;23.386;2022-12-08T12:30:20;93888.56;;;10.28;96.61
7918;BME280;4004;42.624;23.386;2022-12-08T12:32:56;93897.06;;;10.30;95.88
7918;BME280;4004;42.624;23.386;2022-12-08T12:35:30;93888.28;;;10.33;96.16
7918;BME280;4004;42.624;23.386;2022-12-08T12:38:02;93893.38;;;10.39;96.40
7918;BME280;4004;42.624;23.386;2022-12-08T12:40:49;93887.81;;;10.51;96.09
7918;BME280;4004;42.624;23.386;2022-12-08T12:43:29;93885.13;;;10.51;95.91
7918;BME280;4004;42.624;23.386;2022-12-08T12:52:00;93872.63;;;10.62;98.03
7918;BME280;4004;42.624;23.386;2022-12-08T12:54:27;93871.75;;;10.54;97.99
7918;BME280;4004;42.624;23.386;2022-12-08T12:56:56;93857.94;;;10.56;98.67
7918;BME280;4004;42.624;23.386;2022-12-08T12:59:43;93878.84;;;10.66;97.16
7918;BME280;4004;42.624;23.386;2022-12-08T13:02:17;93865.06;;;10.71;96.31
7918;BME280;4004;42.624;23.386;2022-12-08T13:05:01;93869.06;;;10.81;95.05
7918;BME280;4004;42.624;23.386;2022-12-08T13:07:30;93890.63;;;10.85;94.14
7918;BME280;4004;42.624;23.386;2022-12-08T13:10:02;93879.88;;;10.85;93.88
7918;BME280;4004;42.624;23.386;2022-12-08T13:12:29;93855.97;;;10.79;93.38
7918;BME280;4004;42.624;23.386;2022-12-08T13:15:05;93858.72;;;10.83;92.92
7918;BME280;4004;42.624;23.386;2022-12-08T13:17:35;93856.72;;;10.76;92.93
7918;BME280;4004;42.624;23.386;2022-12-08T13:20:05;93772.28;;;10.05;93.47
7918;BME280;4004;42.624;23.386;2022-12-08T13:22:48;93858.00;;;10.60;93.59
7918;BME280;4004;42.624;23.386;2022-12-08T13:25:46;93871.00;;;10.57;93.51
7918;BME280;4004;42.624;23.386;2022-12-08T13:28:18;93869.50;;;10.60;94.29
7918;BME280;4004;42.624;23.386;2022-12-08T13:30:48;93854.56;;;10.63;93.50
7918;BME280;4004;42.624;23.386;2022-12-08T13:33:17;93859.88;;;10.32;94.72
7918;BME280;4004;42.624;23.386;2022-12-08T13:35:54;93864.84;;;10.30;96.21
7918;BME280;4004;42.624;23.386;2022-12-08T13:38:25;93863.34;;;10.33;96.71
7918;BME280;4004;42.624;23.386;2022-12-08T13:40:54;93862.97;;;10.34;96.37